createdAt,value
2022-10-18T00:00:30.914Z,17.41
2022-10-18T00:04:33.691Z,17.38
2022-10-18T00:08:37.989Z,17.41
2022-10-18T00:12:40.120Z,17.35
2022-10-18T00:16:42.182Z,17.33
2022-10-18T00:20:44.188Z,17.31
2022-10-18T00:24:46.227Z,17.34
2022-10-18T00:28:52.506Z,17.36
2022-10-18T00:32:54.537Z,17.40
2022-10-18T00:36:56.721Z,17.43
2022-10-18T00:40:59.170Z,17.46
2022-10-18T00:45:19.650Z,17.45
2022-10-18T00:49:27.322Z,17.43
2022-10-18T00:53:29.415Z,17.44
2022-10-18T00:57:32.010Z,17.43
2022-10-18T01:01:34.255Z,17.40
2022-10-18T01:05:45.270Z,17.38
2022-10-18T01:10:23.346Z,17.37
2022-10-18T01:14:39.977Z,17.34
2022-10-18T01:19:08.739Z,17.31
2022-10-18T01:23:40.287Z,17.31
2022-10-18T01:28:13.157Z,17.37
2022-10-18T01:32:20.974Z,17.44
2022-10-18T01:36:28.437Z,17.40
2022-10-18T01:40:32.517Z,17.32
2022-10-18T01:44:35.393Z,17.27
2022-10-18T01:48:40.322Z,17.10
2022-10-18T01:52:52.358Z,17.12
2022-10-18T01:57:19.805Z,17.14
2022-10-18T02:01:37.023Z,17.13
2022-10-18T02:06:08.411Z,17.10
2022-10-18T02:10:32.346Z,17.03
2022-10-18T02:14:35.340Z,16.83
2022-10-18T02:18:42.078Z,16.78
2022-10-18T02:22:46.025Z,16.79
2022-10-18T02:26:48.061Z,16.82
2022-10-18T02:31:10.772Z,16.88
2022-10-18T02:35:29.307Z,16.98
2022-10-18T02:39:35.694Z,17.06
2022-10-18T02:43:37.924Z,17.12
2022-10-18T02:47:40.146Z,17.16
2022-10-18T02:51:42.223Z,17.17
2022-10-18T02:55:44.249Z,17.20
2022-10-18T02:59:46.267Z,17.19
2022-10-18T03:03:49.933Z,17.15
2022-10-18T03:07:51.936Z,17.04
2022-10-18T03:11:53.945Z,16.91
2022-10-18T03:15:55.942Z,16.84
2022-10-18T03:19:57.950Z,16.82
2022-10-18T03:24:00.023Z,16.82
2022-10-18T03:28:02.070Z,16.83
2022-10-18T03:32:04.156Z,16.82
2022-10-18T03:36:06.205Z,16.78
2022-10-18T03:40:08.779Z,16.70
2022-10-18T03:44:10.804Z,16.65
2022-10-18T03:48:12.884Z,16.65
2022-10-18T03:52:14.918Z,16.70
2022-10-18T03:56:16.909Z,16.72
2022-10-18T04:00:19.015Z,16.74
2022-10-18T04:04:21.117Z,16.75
2022-10-18T04:08:23.116Z,16.77
2022-10-18T04:12:25.188Z,16.82
2022-10-18T04:16:27.263Z,16.86
2022-10-18T04:20:29.499Z,16.96
2022-10-18T04:24:31.479Z,17.03
2022-10-18T04:28:34.428Z,17.05
2022-10-18T04:32:36.667Z,17.06
2022-10-18T04:36:38.792Z,17.09
2022-10-18T04:40:40.819Z,17.13
2022-10-18T04:44:42.866Z,17.17
2022-10-18T04:48:44.903Z,17.22
2022-10-18T04:52:46.961Z,17.24
2022-10-18T04:56:49.055Z,17.24
2022-10-18T05:00:51.069Z,17.21
2022-10-18T05:04:53.075Z,17.17
2022-10-18T05:08:55.084Z,17.15
2022-10-18T05:12:57.217Z,17.16
2022-10-18T05:16:59.210Z,17.13
2022-10-18T05:21:01.258Z,17.13
2022-10-18T05:25:03.569Z,17.13
2022-10-18T05:29:05.807Z,17.15
2022-10-18T05:33:08.413Z,17.13
2022-10-18T05:37:10.429Z,17.12
2022-10-18T05:41:12.723Z,17.12
2022-10-18T05:45:14.751Z,17.03
2022-10-18T05:49:16.802Z,16.86
2022-10-18T05:53:35.698Z,16.74
2022-10-18T05:57:38.101Z,16.81
2022-10-18T06:01:41.786Z,16.90
2022-10-18T06:05:43.964Z,16.93
2022-10-18T06:09:45.973Z,16.96
2022-10-18T06:13:49.851Z,17.00
2022-10-18T06:17:51.878Z,17.03
2022-10-18T06:21:53.895Z,17.03
2022-10-18T06:26:04.887Z,17.04
2022-10-18T06:30:07.747Z,17.06
2022-10-18T06:34:09.772Z,17.11
2022-10-18T06:38:11.834Z,17.13
2022-10-18T06:42:13.900Z,17.16
2022-10-18T06:46:16.100Z,17.23
2022-10-18T06:50:18.104Z,17.29
2022-10-18T06:54:20.158Z,17.30
2022-10-18T06:58:22.122Z,17.30
2022-10-18T07:02:24.150Z,17.31
2022-10-18T07:06:26.300Z,17.23
2022-10-18T07:10:28.400Z,17.14
2022-10-18T07:14:30.374Z,17.13
2022-10-18T07:18:37.664Z,17.08
2022-10-18T07:22:39.884Z,17.12
2022-10-18T07:26:42.716Z,17.07
2022-10-18T07:30:44.792Z,17.00
2022-10-18T07:34:46.769Z,17.05
2022-10-18T07:38:49.437Z,17.18
2022-10-18T07:42:51.495Z,17.32
2022-10-18T07:46:53.764Z,17.50
2022-10-18T07:50:58.634Z,17.71
2022-10-18T07:55:00.779Z,17.84
2022-10-18T07:59:02.884Z,17.89
2022-10-18T08:03:04.923Z,17.87
2022-10-18T08:07:06.912Z,17.90
2022-10-18T08:11:12.138Z,17.97
2022-10-18T08:15:14.438Z,18.02
2022-10-18T08:19:16.448Z,18.01
2022-10-18T08:23:18.438Z,18.01
2022-10-18T08:27:20.546Z,17.95
2022-10-18T08:31:22.644Z,17.91
2022-10-18T08:35:24.746Z,17.86
2022-10-18T08:39:26.971Z,17.94
2022-10-18T08:43:39.027Z,18.13
2022-10-18T08:47:46.404Z,18.29
2022-10-18T08:51:51.442Z,18.37
2022-10-18T08:56:00.792Z,18.36
2022-10-18T09:00:21.124Z,18.32
2022-10-18T09:04:48.475Z,18.27
2022-10-18T09:09:11.118Z,18.23
2022-10-18T09:13:31.120Z,18.25
2022-10-18T09:17:55.092Z,18.28
2022-10-18T09:22:13.485Z,18.26
2022-10-18T09:26:21.576Z,18.22
2022-10-18T09:30:39.541Z,18.19
2022-10-18T09:35:02.301Z,18.21
2022-10-18T09:39:12.116Z,18.17
2022-10-18T09:43:21.572Z,18.18
2022-10-18T09:47:41.401Z,18.23
2022-10-18T09:51:45.407Z,18.30
2022-10-18T09:56:15.080Z,18.33
2022-10-18T10:00:24.278Z,18.46
2022-10-18T10:04:26.821Z,18.73
2022-10-18T10:08:34.260Z,18.99
2022-10-18T10:12:38.614Z,19.21
2022-10-18T10:16:51.237Z,19.31
2022-10-18T10:21:00.257Z,19.26
2022-10-18T10:25:03.271Z,19.42
2022-10-18T10:29:44.537Z,19.33
2022-10-18T10:33:47.860Z,19.24
2022-10-18T10:37:54.448Z,19.32
2022-10-18T10:41:59.166Z,19.50
2022-10-18T10:46:09.742Z,19.60
2022-10-18T10:50:13.304Z,19.65
2022-10-18T10:54:18.518Z,19.68
2022-10-18T10:58:21.536Z,19.65
2022-10-18T11:02:36.813Z,19.57
2022-10-18T11:06:47.537Z,19.37
2022-10-18T11:11:08.445Z,19.41
2022-10-18T11:15:11.792Z,19.44
2022-10-18T11:19:35.742Z,19.41
2022-10-18T11:23:40.136Z,19.26
2022-10-18T11:27:57.945Z,19.41
2022-10-18T11:32:14.533Z,19.51
2022-10-18T11:36:56.300Z,19.87
2022-10-18T11:41:14.422Z,20.11
2022-10-18T11:45:38.865Z,20.27
2022-10-18T11:49:45.039Z,20.36
2022-10-18T11:54:05.440Z,20.27
2022-10-18T11:58:42.602Z,20.26
2022-10-18T12:03:22.948Z,20.34
2022-10-18T12:07:31.623Z,20.39
2022-10-18T12:11:45.301Z,20.30
2022-10-18T12:15:50.998Z,20.30
2022-10-18T12:19:56.507Z,20.21
2022-10-18T12:24:08.280Z,20.30
2022-10-18T12:28:16.357Z,20.25
2022-10-18T12:32:24.742Z,20.15
2022-10-18T12:36:51.751Z,20.32
2022-10-18T12:40:54.952Z,20.50
2022-10-18T12:45:05.781Z,20.76
2022-10-18T12:49:13.020Z,20.89
2022-10-18T12:53:19.150Z,20.80
2022-10-18T12:57:24.336Z,20.71
2022-10-18T13:01:55.339Z,20.51
2022-10-18T13:06:01.604Z,20.47
2022-10-18T13:10:07.969Z,20.35
2022-10-18T13:14:38.733Z,20.26
2022-10-18T13:18:57.616Z,20.30
2022-10-18T13:23:06.888Z,20.31
2022-10-18T13:27:36.312Z,20.50
2022-10-18T13:31:47.843Z,20.61
2022-10-18T13:36:04.658Z,20.72
2022-10-18T13:40:24.336Z,20.61
2022-10-18T13:44:37.557Z,20.44
2022-10-18T13:48:39.604Z,20.50
2022-10-18T13:53:01.406Z,20.57
2022-10-18T13:57:23.974Z,20.53
2022-10-18T14:01:42.722Z,20.40
2022-10-18T14:05:51.295Z,20.26
2022-10-18T14:09:57.589Z,20.16
2022-10-18T14:14:30.448Z,20.09
2022-10-18T14:18:36.692Z,20.00
2022-10-18T14:22:46.325Z,20.07
2022-10-18T14:26:48.391Z,20.12
2022-10-18T14:30:57.561Z,20.16
2022-10-18T14:35:31.540Z,20.24
2022-10-18T14:39:28.070Z,20.17
2022-10-18T14:43:30.060Z,20.01
2022-10-18T14:47:36.113Z,20.05
2022-10-18T14:51:40.849Z,20.12
2022-10-18T14:55:43.117Z,20.17
2022-10-18T14:59:51.761Z,20.18
2022-10-18T15:03:59.361Z,20.24
2022-10-18T15:08:01.895Z,20.23
2022-10-18T15:12:07.000Z,20.23
2022-10-18T15:16:17.492Z,20.12
2022-10-18T15:20:21.459Z,19.95
2022-10-18T15:24:26.383Z,19.86
2022-10-18T15:28:39.312Z,19.69
2022-10-18T15:32:57.622Z,19.54
2022-10-18T15:37:00.625Z,19.46
2022-10-18T15:41:03.021Z,19.40
2022-10-18T15:45:25.559Z,19.32
2022-10-18T15:49:47.444Z,19.21
2022-10-18T15:53:49.390Z,19.12
2022-10-18T15:57:51.471Z,19.03
2022-10-18T16:01:54.112Z,18.96
2022-10-18T16:06:02.689Z,18.87
2022-10-18T16:10:13.628Z,18.71
2022-10-18T16:14:15.744Z,18.57
2022-10-18T16:18:20.018Z,18.41
2022-10-18T16:22:22.192Z,18.25
2022-10-18T16:26:25.517Z,18.09
2022-10-18T16:30:32.503Z,17.95
2022-10-18T16:34:34.625Z,17.85
2022-10-18T16:38:37.917Z,17.73
2022-10-18T16:42:39.909Z,17.60
2022-10-18T16:46:42.142Z,17.52
2022-10-18T16:50:44.254Z,17.46
2022-10-18T16:54:46.322Z,17.39
2022-10-18T16:58:49.015Z,17.33
2022-10-18T17:02:51.090Z,17.34
2022-10-18T17:06:57.203Z,17.32
2022-10-18T17:10:59.922Z,17.30
2022-10-18T17:15:01.941Z,17.27
2022-10-18T17:19:06.348Z,17.22
2022-10-18T17:23:09.245Z,17.18
2022-10-18T17:27:11.506Z,17.09
2022-10-18T17:31:14.890Z,16.90
2022-10-18T17:35:17.201Z,16.71
2022-10-18T17:39:21.239Z,16.54
2022-10-18T17:43:23.277Z,16.42
2022-10-18T17:47:25.583Z,16.38
2022-10-18T17:51:27.690Z,16.31
2022-10-18T17:55:30.083Z,16.21
2022-10-18T17:59:32.071Z,16.11
2022-10-18T18:03:34.132Z,16.19
2022-10-18T18:07:36.224Z,16.15
2022-10-18T18:11:40.532Z,16.11
2022-10-18T18:15:42.534Z,16.07
2022-10-18T18:19:44.658Z,16.05
2022-10-18T18:23:47.579Z,15.85
2022-10-18T18:27:51.721Z,15.66
2022-10-18T18:31:53.795Z,15.54
2022-10-18T18:35:57.186Z,15.47
2022-10-18T18:39:59.155Z,15.41
2022-10-18T18:44:04.077Z,15.41
2022-10-18T18:48:06.543Z,15.33
2022-10-18T18:52:08.536Z,15.21
2022-10-18T18:56:16.305Z,15.17
2022-10-18T19:00:18.480Z,15.19
2022-10-18T19:04:20.663Z,15.13
2022-10-18T19:08:22.667Z,14.99
2022-10-18T19:12:24.697Z,14.98
2022-10-18T19:16:30.897Z,15.07
2022-10-18T19:20:32.872Z,15.19
2022-10-18T19:24:35.318Z,15.31
2022-10-18T19:28:37.559Z,15.42
2022-10-18T19:32:39.566Z,15.46
2022-10-18T19:36:43.356Z,15.48
2022-10-18T19:40:45.361Z,15.39
2022-10-18T19:44:47.695Z,15.27
2022-10-18T19:48:49.812Z,15.18
2022-10-18T19:52:51.826Z,15.10
2022-10-18T19:56:54.038Z,14.95
2022-10-18T20:00:57.009Z,14.80
2022-10-18T20:04:58.970Z,14.74
2022-10-18T20:09:01.173Z,14.68
2022-10-18T20:13:03.174Z,14.62
2022-10-18T20:17:05.837Z,14.53
2022-10-18T20:21:08.827Z,14.34
2022-10-18T20:25:10.830Z,14.30
2022-10-18T20:29:12.954Z,14.22
2022-10-18T20:33:14.979Z,14.16
2022-10-18T20:37:16.992Z,13.91
2022-10-18T20:41:22.301Z,13.75
2022-10-18T20:45:24.293Z,13.75
2022-10-18T20:49:26.393Z,13.82
2022-10-18T20:53:28.453Z,13.82
2022-10-18T20:57:34.155Z,13.78
2022-10-18T21:01:39.695Z,13.69
2022-10-18T21:05:41.792Z,13.65
2022-10-18T21:09:43.774Z,13.60
2022-10-18T21:13:51.054Z,13.63
2022-10-18T21:17:53.015Z,13.59
2022-10-18T21:21:57.400Z,13.58
2022-10-18T21:25:59.373Z,13.55
2022-10-18T21:30:01.614Z,13.57
2022-10-18T21:34:22.142Z,13.51
2022-10-18T21:38:24.128Z,13.47
2022-10-18T21:42:26.129Z,13.46
2022-10-18T21:46:28.444Z,13.45
2022-10-18T21:50:30.458Z,13.42
2022-10-18T21:54:32.522Z,13.44
2022-10-18T21:58:36.210Z,13.47
2022-10-18T22:02:38.224Z,13.48
2022-10-18T22:06:40.194Z,13.47
2022-10-18T22:10:42.238Z,13.47
2022-10-18T22:14:44.217Z,13.41
2022-10-18T22:18:47.743Z,13.37
2022-10-18T22:22:53.900Z,13.41
2022-10-18T22:26:55.871Z,13.40
2022-10-18T22:30:59.007Z,13.27
2022-10-18T22:35:00.984Z,13.22
2022-10-18T22:39:05.307Z,13.18
2022-10-18T22:43:07.285Z,13.09
2022-10-18T22:47:09.370Z,12.89
2022-10-18T22:51:12.122Z,12.76
2022-10-18T22:55:14.195Z,12.72
2022-10-18T22:59:16.206Z,12.71
2022-10-18T23:03:18.783Z,12.73
2022-10-18T23:07:20.835Z,12.72
2022-10-18T23:11:24.180Z,12.62
2022-10-18T23:15:26.189Z,12.51
2022-10-18T23:19:28.206Z,12.33
2022-10-18T23:23:34.795Z,12.32
2022-10-18T23:27:36.837Z,12.34
2022-10-18T23:31:38.918Z,12.28
2022-10-18T23:35:40.919Z,12.23
2022-10-18T23:39:42.924Z,12.14
2022-10-18T23:43:45.058Z,12.13
2022-10-18T23:47:47.009Z,12.13
2022-10-18T23:51:49.053Z,12.09
2022-10-18T23:56:03.086Z,12.09
